sensor_id;sensor_type;location;lat;lon;timestamp;pressure;altitude;pressure_sealevel;temperature;humidity
5500;BME280;2772;42.700;23.304;2024-01-15T00:01:32;94573.81;;;1.31;100.00
5500;BME280;2772;42.700;23.304;2024-01-15T00:04:00;94562.78;;;1.34;100.00
5500;BME280;2772;42.700;23.304;2024-01-15T00:06:27;94568.31;;;1.28;100.00
5500;BME280;2772;42.700;23.304;2024-01-15T00:08:54;94560.72;;;1.36;100.00
5500;BME280;2772;42.700;23.304;2024-01-15T00:11:20;94564.41;;;1.40;100.00
5500;BME280;2772;42.700;23.304;2024-01-15T00:13:47;94565.19;;;1.31;100.00
5500;BME280;2772;42.700;23.304;2024-01-15T00:16:14;94562.56;;;1.31;100.00
5500;BME280;2772;42.700;23.304;2024-01-15T00:18:40;94573.81;;;1.31;100.00
5500;BME280;2772;42.700;23.304;2024-01-15T00:21:09;94565.94;;;1.31;100.00
5500;BME280;2772;42.700;23.304;2024-01-15T00:23:36;94566.97;;;1.20;100.00
5500;BME280;2772;42.700;23.304;2024-01-15T00:26:03;94561.50;;;1.27;100.00
5500;BME280;2772;42.700;23.304;2024-01-15T00:28:29;94565.97;;;1.26;100.00
5500;BME280;2772;42.700;23.304;2024-01-15T00:30:56;94569.09;;;1.28;100.00
5500;BME280;2772;42.700;23.304;2024-01-15T00:33:23;94567.78;;;1.26;100.00
5500;BME280;2772;42.700;23.304;2024-01-15T00:35:49;94568.59;;;1.26;100.00
5500;BME280;2772;42.700;23.304;2024-01-15T00:38:18;94572.75;;;1.22;100.00
5500;BME280;2772;42.700;23.304;2024-01-15T00:40:45;94571.97;;;1.12;100.00
5500;BME280;2772;42.700;23.304;2024-01-15T00:43:12;94566.97;;;1.00;100.00
5500;BME280;2772;42.700;23.304;2024-01-15T00:45:40;94562.78;;;1.14;100.00
5500;BME280;2772;42.700;23.304;2024-01-15T00:48:07;94564.09;;;1.12;100.00
5500;BME280;2772;42.700;23.304;2024-01-15T00:50:34;94559.13;;;1.10;100.00
5500;BME280;2772;42.700;23.304;2024-01-15T00:53:01;94559.13;;;1.20;100.00
5500;BME280;2772;42.700;23.304;2024-01-15T00:55:29;94569.88;;;1.19;100.00
5500;BME280;2772;42.700;23.304;2024-01-15T00:57:56;94569.38;;;1.17;100.00
5500;BME280;2772;42.700;23.304;2024-01-15T01:00:23;94565.66;;;1.08;100.00
5500;BME280;2772;42.700;23.304;2024-01-15T01:02:49;94561.72;;;1.00;100.00
5500;BME280;2772;42.700;23.304;2024-01-15T01:05:16;94560.19;;;1.04;100.00
5500;BME280;2772;42.700;23.304;2024-01-15T01:07:43;94564.38;;;1.10;100.00
5500;BME280;2772;42.700;23.304;2024-01-15T01:10:09;94565.41;;;1.04;100.00
5500;BME280;2772;42.700;23.304;2024-01-15T01:12:37;94564.63;;;1.09;100.00
5500;BME280;2772;42.700;23.304;2024-01-15T01:15:05;94558.59;;;0.98;100.00
5500;BME280;2772;42.700;23.304;2024-01-15T01:17:32;94557.03;;;1.07;100.00
5500;BME280;2772;42.700;23.304;2024-01-15T01:19:59;94557.28;;;1.11;100.00
5500;BME280;2772;42.700;23.304;2024-01-15T01:22:29;94549.69;;;0.99;100.00
5500;BME280;2772;42.700;23.304;2024-01-15T01:24:56;94553.06;;;1.05;100.00
5500;BME280;2772;42.700;23.304;2024-01-15T01:27:23;94555.97;;;0.98;100.00
5500;BME280;2772;42.700;23.304;2024-01-15T01:29:51;94542.09;;;1.18;100.00
5500;BME280;2772;42.700;23.304;2024-01-15T01:32:18;94547.84;;;1.05;100.00
5500;BME280;2772;42.700;23.304;2024-01-15T01:34:45;94547.06;;;1.09;100.00
5500;BME280;2772;42.700;23.304;2024-01-15T01:37:12;94540.25;;;1.08;100.00
5500;BME280;2772;42.700;23.304;2024-01-15T01:39:39;94540.78;;;1.05;100.00
5500;BME280;2772;42.700;23.304;2024-01-15T01:42:06;94543.69;;;1.14;100.00
5500;BME280;2772;42.700;23.304;2024-01-15T01:44:33;94528.44;;;1.01;100.00
5500;BME280;2772;42.700;23.304;2024-01-15T01:47:01;94535.81;;;1.14;100.00
5500;BME280;2772;42.700;23.304;2024-01-15T01:49:29;94538.69;;;1.12;100.00
5500;BME280;2772;42.700;23.304;2024-01-15T01:51:57;94538.94;;;1.11;100.00
5500;BME280;2772;42.700;23.304;2024-01-15T01:54:24;94538.69;;;1.07;100.00
5500;BME280;2772;42.700;23.304;2024-01-15T01:56:51;94523.22;;;1.01;100.00
5500;BME280;2772;42.700;23.304;2024-01-15T01:59:19;94528.44;;;0.91;100.00
5500;BME280;2772;42.700;23.304;2024-01-15T02:01:46;94533.94;;;0.89;100.00
5500;BME280;2772;42.700;23.304;2024-01-15T02:04:17;94526.31;;;0.88;100.00
5500;BME280;2772;42.700;23.304;2024-01-15T02:06:44;94521.59;;;0.85;100.00
5500;BME280;2772;42.700;23.304;2024-01-15T02:09:11;94518.72;;;0.86;100.00
5500;BME280;2772;42.700;23.304;2024-01-15T02:11:40;94526.84;;;0.80;100.00
5500;BME280;2772;42.700;23.304;2024-01-15T02:14:07;94517.94;;;0.91;100.00
5500;BME280;2772;42.700;23.304;2024-01-15T02:16:35;94510.09;;;0.81;100.00
5500;BME280;2772;42.700;23.304;2024-01-15T02:19:01;94508.78;;;0.83;100.00
5500;BME280;2772;42.700;23.304;2024-01-15T02:21:30;94488.09;;;0.87;100.00
5500;BME280;2772;42.700;23.304;2024-01-15T02:23:59;94492.78;;;0.80;100.00
5500;BME280;2772;42.700;23.304;2024-01-15T02:26:27;94463.19;;;0.89;100.00
5500;BME280;2772;42.700;23.304;2024-01-15T02:28:55;94459.25;;;0.77;100.00
5500;BME280;2772;42.700;23.304;2024-01-15T02:31:22;94461.59;;;0.83;100.00
5500;BME280;2772;42.700;23.304;2024-01-15T02:33:48;94457.13;;;0.69;100.00
5500;BME280;2772;42.700;23.304;2024-01-15T02:36:15;94464.75;;;0.60;100.00
5500;BME280;2772;42.700;23.304;2024-01-15T02:38:42;94472.03;;;0.38;100.00
5500;BME280;2772;42.700;23.304;2024-01-15T02:41:10;94482.78;;;0.47;100.00
5500;BME280;2772;42.700;23.304;2024-01-15T02:43:39;94476.47;;;0.43;100.00
5500;BME280;2772;42.700;23.304;2024-01-15T02:46:06;94475.16;;;0.35;100.00
5500;BME280;2772;42.700;23.304;2024-01-15T02:48:32;94474.13;;;0.31;100.00
5500;BME280;2772;42.700;23.304;2024-01-15T02:51:00;94466.78;;;0.28;100.00
5500;BME280;2772;42.700;23.304;2024-01-15T02:53:27;94478.28;;;0.27;100.00
5500;BME280;2772;42.700;23.304;2024-01-15T02:55:54;94478.78;;;0.19;100.00
5500;BME280;2772;42.700;23.304;2024-01-15T02:58:22;94467.28;;;0.30;100.00
5500;BME280;2772;42.700;23.304;2024-01-15T03:00:49;94459.66;;;0.09;100.00
5500;BME280;2772;42.700;23.304;2024-01-15T03:03:16;94467.78;;;0.22;100.00
5500;BME280;2772;42.700;23.304;2024-01-15T03:05:42;94470.13;;;0.14;100.00
5500;BME280;2772;42.700;23.304;2024-01-15T03:08:09;94467.50;;;0.14;100.00
5500;BME280;2772;42.700;23.304;2024-01-15T03:10:36;94470.91;;;0.19;100.00
5500;BME280;2772;42.700;23.304;2024-01-15T03:13:03;94473.78;;;0.08;100.00
5500;BME280;2772;42.700;23.304;2024-01-15T03:15:31;94457.59;;;0.16;100.00
5500;BME280;2772;42.700;23.304;2024-01-15T03:17:58;94456.50;;;0.07;100.00
5500;BME280;2772;42.700;23.304;2024-01-15T03:20:25;94459.38;;;0.05;100.00
5500;BME280;2772;42.700;23.304;2024-01-15T03:22:52;94460.41;;;-0.01;100.00
5500;BME280;2772;42.700;23.304;2024-01-15T03:25:19;94454.38;;;-0.02;100.00
5500;BME280;2772;42.700;23.304;2024-01-15T03:27:45;94447.28;;;-0.06;100.00
5500;BME280;2772;42.700;23.304;2024-01-15T03:30:13;94446.22;;;-0.15;100.00
5500;BME280;2772;42.700;23.304;2024-01-15T03:32:41;94444.69;;;-0.11;100.00
5500;BME280;2772;42.700;23.304;2024-01-15T03:35:08;94447.53;;;-0.08;100.00
5500;BME280;2772;42.700;23.304;2024-01-15T03:37:35;94453.84;;;-0.04;100.00
5500;BME280;2772;42.700;23.304;2024-01-15T03:40:02;94455.13;;;-0.11;100.00
5500;BME280;2772;42.700;23.304;2024-01-15T03:42:29;94456.69;;;-0.10;100.00
5500;BME280;2772;42.700;23.304;2024-01-15T03:44:55;94448.81;;;-0.15;100.00
5500;BME280;2772;42.700;23.304;2024-01-15T03:47:22;94440.22;;;-0.11;100.00
5500;BME280;2772;42.700;23.304;2024-01-15T03:49:51;94444.94;;;-0.08;100.00
5500;BME280;2772;42.700;23.304;2024-01-15T03:52:18;94453.59;;;-0.02;100.00
5500;BME280;2772;42.700;23.304;2024-01-15T03:54:44;94441.28;;;-0.07;100.00
5500;BME280;2772;42.700;23.304;2024-01-15T03:57:11;94454.38;;;-0.02;100.00
5500;BME280;2772;42.700;23.304;2024-01-15T03:59:38;94454.13;;;0.05;100.00
5500;BME280;2772;42.700;23.304;2024-01-15T04:02:06;94442.13;;;0.09;100.00
5500;BME280;2772;42.700;23.304;2024-01-15T04:04:33;94442.66;;;0.16;100.00
5500;BME280;2772;42.700;23.304;2024-01-15T04:07:02;94436.03;;;-0.02;100.00
5500;BME280;2772;42.700;23.304;2024-01-15T04:09:29;94429.06;;;0.14;100.00
5500;BME280;2772;42.700;23.304;2024-01-15T04:11:56;94430.53;;;-0.10;100.00
5500;BME280;2772;42.700;23.304;2024-01-15T04:14:22;94436.59;;;0.00;100.00
5500;BME280;2772;42.700;23.304;2024-01-15T04:16:49;94432.09;;;-0.09;100.00
5500;BME280;2772;42.700;23.304;2024-01-15T04:19:19;94434.97;;;-0.11;100.00
5500;BME280;2772;42.700;23.304;2024-01-15T04:21:46;94432.84;;;-0.24;100.00
5500;BME280;2772;42.700;23.304;2024-01-15T04:24:14;94434.69;;;-0.19;100.00
5500;BME280;2772;42.700;23.304;2024-01-15T04:26:43;94431.56;;;-0.16;100.00
5500;BME280;2772;42.700;23.304;2024-01-15T04:29:10;94425.25;;;-0.20;100.00
5500;BME280;2772;42.700;23.304;2024-01-15T04:31:36;94428.88;;;-0.36;100.00
5500;BME280;2772;42.700;23.304;2024-01-15T04:34:03;94432.47;;;-0.52;100.00
5500;BME280;2772;42.700;23.304;2024-01-15T04:36:30;94428.16;;;-0.73;100.00
5500;BME280;2772;42.700;23.304;2024-01-15T04:38:56;94420.78;;;-0.86;100.00
5500;BME280;2772;42.700;23.304;2024-01-15T04:41:24;94414.56;;;-0.70;100.00
5500;BME280;2772;42.700;23.304;2024-01-15T04:43:51;94410.97;;;-0.64;100.00
5500;BME280;2772;42.700;23.304;2024-01-15T04:46:18;94409.91;;;-0.63;100.00
5500;BME280;2772;42.700;23.304;2024-01-15T04:48:45;94407.84;;;-0.56;100.00
5500;BME280;2772;42.700;23.304;2024-01-15T04:51:11;94425.50;;;-0.83;100.00
5500;BME280;2772;42.700;23.304;2024-01-15T04:53:38;94411.50;;;-1.04;100.00
5500;BME280;2772;42.700;23.304;2024-01-15T04:56:05;94399.28;;;-0.93;100.00
5500;BME280;2772;42.700;23.304;2024-01-15T04:58:33;94391.06;;;-0.75;100.00
5500;BME280;2772;42.700;23.304;2024-01-15T05:01:00;94397.13;;;-0.60;100.00
5500;BME280;2772;42.700;23.304;2024-01-15T05:03:27;94394.72;;;-0.71;100.00
5500;BME280;2772;42.700;23.304;2024-01-15T05:05:53;94394.53;;;-0.60;100.00
5500;BME280;2772;42.700;23.304;2024-01-15T05:08:20;94389.59;;;-0.46;100.00
5500;BME280;2772;42.700;23.304;2024-01-15T05:10:47;94387.75;;;-0.51;100.00
5500;BME280;2772;42.700;23.304;2024-01-15T05:13:13;94386.00;;;-0.35;100.00
5500;BME280;2772;42.700;23.304;2024-01-15T05:15:42;94386.28;;;-0.32;100.00
5500;BME280;2772;42.700;23.304;2024-01-15T05:18:08;94386.78;;;-0.35;100.00
5500;BME280;2772;42.700;23.304;2024-01-15T05:20:35;94390.19;;;-0.29;100.00
5500;BME280;2772;42.700;23.304;2024-01-15T05:23:02;94387.00;;;-0.41;100.00
5500;BME280;2772;42.700;23.304;2024-01-15T05:25:28;94389.16;;;-0.23;100.00
5500;BME280;2772;42.700;23.304;2024-01-15T05:27:55;94390.22;;;-0.24;100.00
5500;BME280;2772;42.700;23.304;2024-01-15T05:30:22;94399.13;;;-0.25;100.00
5500;BME280;2772;42.700;23.304;2024-01-15T05:32:50;94390.50;;;-0.21;100.00
5500;BME280;2772;42.700;23.304;2024-01-15T05:35:17;94381.78;;;-0.41;100.00
5500;BME280;2772;42.700;23.304;2024-01-15T05:37:44;94378.69;;;-0.23;100.00
5500;BME280;2772;42.700;23.304;2024-01-15T05:40:12;94381.53;;;-0.30;100.00
5500;BME280;2772;42.700;23.304;2024-01-15T05:42:39;94380.75;;;-0.35;100.00
5500;BME280;2772;42.700;23.304;2024-01-15T05:45:06;94382.84;;;-0.32;100.00
5500;BME280;2772;42.700;23.304;2024-01-15T05:47:33;94389.06;;;-0.48;100.00
5500;BME280;2772;42.700;23.304;2024-01-15T05:50:01;94364.50;;;-0.47;100.00
5500;BME280;2772;42.700;23.304;2024-01-15T05:52:28;94361.56;;;-0.61;100.00
5500;BME280;2772;42.700;23.304;2024-01-15T05:54:55;94360.34;;;-0.43;100.00
5500;BME280;2772;42.700;23.304;2024-01-15T05:57:22;94363.44;;;-0.51;100.00
5500;BME280;2772;42.700;23.304;2024-01-15T05:59:48;94363.91;;;-0.64;100.00
5500;BME280;2772;42.700;23.304;2024-01-15T06:02:17;94370.38;;;-0.82;100.00
5500;BME280;2772;42.700;23.304;2024-01-15T06:04:44;94375.75;;;-1.03;100.00
5500;BME280;2772;42.700;23.304;2024-01-15T06:07:12;94377.63;;;-0.89;100.00
5500;BME280;2772;42.700;23.304;2024-01-15T06:09:39;94367.53;;;-0.70;100.00
5500;BME280;2772;42.700;23.304;2024-01-15T06:12:07;94373.06;;;-0.62;100.00
5500;BME280;2772;42.700;23.304;2024-01-15T06:14:34;94375.22;;;-0.49;100.00
5500;BME280;2772;42.700;23.304;2024-01-15T06:17:00;94369.44;;;-0.56;100.00
5500;BME280;2772;42.700;23.304;2024-01-15T06:19:28;94365.25;;;-0.57;100.00
5500;BME280;2772;42.700;23.304;2024-01-15T06:21:55;94358.19;;;-0.56;100.00
5500;BME280;2772;42.700;23.304;2024-01-15T06:24:23;94355.59;;;-0.51;100.00
5500;BME280;2772;42.700;23.304;2024-01-15T06:26:49;94350.88;;;-0.54;100.00
5500;BME280;2772;42.700;23.304;2024-01-15T06:29:16;94353.28;;;-0.43;100.00
5500;BME280;2772;42.700;23.304;2024-01-15T06:31:43;94358.81;;;-0.24;100.00
5500;BME280;2772;42.700;23.304;2024-01-15T06:34:10;94370.81;;;-0.38;100.00
5500;BME280;2772;42.700;23.304;2024-01-15T06:36:36;94364.78;;;-0.49;100.00
5500;BME280;2772;42.700;23.304;2024-01-15T06:39:03;94366.59;;;-0.49;100.00
5500;BME280;2772;42.700;23.304;2024-01-15T06:41:32;94354.81;;;-0.57;100.00
5500;BME280;2772;42.700;23.304;2024-01-15T06:44:00;94364.50;;;-0.42;100.00
5500;BME280;2772;42.700;23.304;2024-01-15T06:46:26;94363.75;;;-0.33;100.00
5500;BME280;2772;42.700;23.304;2024-01-15T06:48:53;94360.81;;;-0.51;100.00
5500;BME280;2772;42.700;23.304;2024-01-15T06:51:27;94362.19;;;-0.39;100.00
5500;BME280;2772;42.700;23.304;2024-01-15T06:53:54;94365.03;;;-0.45;100.00
5500;BME280;2772;42.700;23.304;2024-01-15T06:56:21;94368.91;;;-0.53;100.00
5500;BME280;2772;42.700;23.304;2024-01-15T06:58:52;94377.88;;;-0.34;100.00
5500;BME280;2772;42.700;23.304;2024-01-15T07:01:18;94384.22;;;-0.15;100.00
5500;BME280;2772;42.700;23.304;2024-01-15T07:03:45;94385.56;;;-0.02;100.00
5500;BME280;2772;42.700;23.304;2024-01-15T07:06:12;94386.09;;;0.10;100.00
5500;BME280;2772;42.700;23.304;2024-01-15T07:08:39;94368.88;;;0.14;100.00
5500;BME280;2772;42.700;23.304;2024-01-15T07:11:06;94369.63;;;0.15;100.00
5500;BME280;2772;42.700;23.304;2024-01-15T07:13:33;94379.06;;;0.31;100.00
5500;BME280;2772;42.700;23.304;2024-01-15T07:16:02;94378.56;;;0.49;100.00
5500;BME280;2772;42.700;23.304;2024-01-15T07:18:28;94378.53;;;0.24;100.00
5500;BME280;2772;42.700;23.304;2024-01-15T07:20:55;94382.22;;;0.33;100.00
5500;BME280;2772;42.700;23.304;2024-01-15T07:23:22;94374.63;;;0.31;100.00
5500;BME280;2772;42.700;23.304;2024-01-15T07:25:48;94382.22;;;0.43;100.00
5500;BME280;2772;42.700;23.304;2024-01-15T07:28:15;94382.72;;;0.15;100.00
5500;BME280;2772;42.700;23.304;2024-01-15T07:30:42;94359.97;;;0.30;100.00
5500;BME280;2772;42.700;23.304;2024-01-15T07:33:10;94353.66;;;0.61;100.00
5500;BME280;2772;42.700;23.304;2024-01-15T07:35:37;94343.94;;;0.97;100.00
5500;BME280;2772;42.700;23.304;2024-01-15T07:38:04;94344.22;;;0.85;100.00
5500;BME280;2772;42.700;23.304;2024-01-15T07:40:31;94358.38;;;0.84;100.00
5500;BME280;2772;42.700;23.304;2024-01-15T07:43:00;94371.50;;;0.74;100.00
5500;BME280;2772;42.700;23.304;2024-01-15T07:45:27;94370.97;;;0.72;100.00
5500;BME280;2772;42.700;23.304;2024-01-15T07:47:54;94367.81;;;0.75;100.00
5500;BME280;2772;42.700;23.304;2024-01-15T07:50:22;94375.13;;;0.83;100.00
5500;BME280;2772;42.700;23.304;2024-01-15T07:52:48;94380.38;;;0.88;100.00
5500;BME280;2772;42.700;23.304;2024-01-15T07:55:15;94369.41;;;0.71;100.00
5500;BME280;2772;42.700;23.304;2024-01-15T07:57:42;94382.75;;;0.95;100.00
5500;BME280;2772;42.700;23.304;2024-01-15T08:00:09;94351.53;;;1.03;100.00
5500;BME280;2772;42.700;23.304;2024-01-15T08:02:36;94336.53;;;1.19;100.00
5500;BME280;2772;42.700;23.304;2024-01-15T08:05:04;94344.66;;;1.27;100.00
5500;BME280;2772;42.700;23.304;2024-01-15T08:07:32;94339.94;;;1.29;100.00
5500;BME280;2772;42.700;23.304;2024-01-15T08:09:59;94363.97;;;1.51;100.00
5500;BME280;2772;42.700;23.304;2024-01-15T08:12:25;94372.88;;;1.60;100.00
5500;BME280;2772;42.700;23.304;2024-01-15T08:14:54;94380.41;;;1.77;100.00
5500;BME280;2772;42.700;23.304;2024-01-15T08:17:20;94376.94;;;1.87;100.00
5500;BME280;2772;42.700;23.304;2024-01-15T08:19:47;94373.53;;;1.86;100.00
5500;BME280;2772;42.700;23.304;2024-01-15T08:22:14;94379.03;;;1.85;100.00
5500;BME280;2772;42.700;23.304;2024-01-15T08:24:44;94381.13;;;1.88;100.00
5500;BME280;2772;42.700;23.304;2024-01-15T08:27:12;94387.97;;;1.89;100.00
5500;BME280;2772;42.700;23.304;2024-01-15T08:29:39;94393.16;;;1.94;100.00
5500;BME280;2772;42.700;23.304;2024-01-15T08:32:05;94370.31;;;1.99;100.00
5500;BME280;2772;42.700;23.304;2024-01-15T08:34:32;94362.16;;;2.01;100.00
5500;BME280;2772;42.700;23.304;2024-01-15T08:36:59;94358.91;;;2.19;100.00
5500;BME280;2772;42.700;23.304;2024-01-15T08:39:26;94349.16;;;2.24;100.00
5500;BME280;2772;42.700;23.304;2024-01-15T08:41:54;94331.13;;;2.46;100.00
5500;BME280;2772;42.700;23.304;2024-01-15T08:44:20;94341.34;;;2.53;100.00
5500;BME280;2772;42.700;23.304;2024-01-15T08:46:47;94341.09;;;2.49;100.00
5500;BME280;2772;42.700;23.304;2024-01-15T08:49:14;94346.03;;;2.56;100.00
5500;BME280;2772;42.700;23.304;2024-01-15T08:51:41;94358.94;;;2.52;100.00
5500;BME280;2772;42.700;23.304;2024-01-15T08:54:07;94355.06;;;2.45;100.00
5500;BME280;2772;42.700;23.304;2024-01-15T08:56:34;94343.19;;;2.52;100.00
5500;BME280;2772;42.700;23.304;2024-01-15T08:59:02;94320.19;;;2.68;100.00
5500;BME280;2772;42.700;23.304;2024-01-15T09:01:29;94319.53;;;2.81;100.00
5500;BME280;2772;42.700;23.304;2024-01-15T09:03:56;94327.47;;;2.76;100.00
5500;BME280;2772;42.700;23.304;2024-01-15T09:06:23;94326.97;;;2.74;100.00
5500;BME280;2772;42.700;23.304;2024-01-15T09:08:49;94306.28;;;2.62;100.00
5500;BME280;2772;42.700;23.304;2024-01-15T09:11:17;94303.25;;;2.79;100.00
5500;BME280;2772;42.700;23.304;2024-01-15T09:13:46;94286.25;;;2.71;100.00
5500;BME280;2772;42.700;23.304;2024-01-15T09:16:14;94286.66;;;2.83;100.00
5500;BME280;2772;42.700;23.304;2024-01-15T09:18:41;94278.50;;;2.85;100.00
5500;BME280;2772;42.700;23.304;2024-01-15T09:21:07;94285.38;;;3.04;100.00
5500;BME280;2772;42.700;23.304;2024-01-15T09:23:34;94276.19;;;3.02;100.00
5500;BME280;2772;42.700;23.304;2024-01-15T09:26:01;94279.66;;;2.97;100.00
5500;BME280;2772;42.700;23.304;2024-01-15T09:28:27;94261.66;;;3.09;100.00
5500;BME280;2772;42.700;23.304;2024-01-15T09:30:54;94266.81;;;2.96;100.00
5500;BME280;2772;42.700;23.304;2024-01-15T09:33:22;94275.69;;;3.00;100.00
5500;BME280;2772;42.700;23.304;2024-01-15T09:35:49;94269.09;;;3.02;100.00
5500;BME280;2772;42.700;23.304;2024-01-15T09:38:16;94262.50;;;3.05;100.00
5500;BME280;2772;42.700;23.304;2024-01-15T09:40:45;94256.25;;;3.01;100.00
5500;BME280;2772;42.700;23.304;2024-01-15T09:43:13;94249.81;;;3.12;100.00
5500;BME280;2772;42.700;23.304;2024-01-15T09:45:41;94248.50;;;3.09;100.00
5500;BME280;2772;42.700;23.304;2024-01-15T09:48:08;94235.59;;;3.13;100.00
5500;BME280;2772;42.700;23.304;2024-01-15T09:50:36;94235.16;;;3.06;100.00
5500;BME280;2772;42.700;23.304;2024-01-15T09:53:04;94229.94;;;3.01;100.00
5500;BME280;2772;42.700;23.304;2024-01-15T09:55:31;94223.56;;;3.07;100.00
5500;BME280;2772;42.700;23.304;2024-01-15T09:58:00;94217.13;;;3.18;100.00
5500;BME280;2772;42.700;23.304;2024-01-15T10:00:28;94211.22;;;3.07;100.00
5500;BME280;2772;42.700;23.304;2024-01-15T10:02:56;94219.97;;;3.21;100.00
5500;BME280;2772;42.700;23.304;2024-01-15T10:05:23;94230.69;;;3.25;100.00
5500;BME280;2772;42.700;23.304;2024-01-15T10:07:51;94219.03;;;3.31;100.00
5500;BME280;2772;42.700;23.304;2024-01-15T10:10:20;94195.94;;;3.47;100.00
5500;BME280;2772;42.700;23.304;2024-01-15T10:12:47;94183.50;;;3.52;100.00
5500;BME280;2772;42.700;23.304;2024-01-15T10:15:14;94179.88;;;3.67;100.00
5500;BME280;2772;42.700;23.304;2024-01-15T10:17:42;94184.75;;;3.73;100.00
5500;BME280;2772;42.700;23.304;2024-01-15T10:20:11;94169.75;;;3.74;100.00
5500;BME280;2772;42.700;23.304;2024-01-15T10:22:40;94172.53;;;3.82;100.00
5500;BME280;2772;42.700;23.304;2024-01-15T10:25:11;94171.78;;;3.95;100.00
5500;BME280;2772;42.700;23.304;2024-01-15T10:27:39;94163.22;;;4.03;100.00
5500;BME280;2772;42.700;23.304;2024-01-15T10:30:10;94158.47;;;4.05;100.00
5500;BME280;2772;42.700;23.304;2024-01-15T10:32:38;94160.75;;;4.25;100.00
5500;BME280;2772;42.700;23.304;2024-01-15T10:35:13;94157.03;;;4.26;100.00
5500;BME280;2772;42.700;23.304;2024-01-15T10:37:42;94148.28;;;4.31;99.55
5500;BME280;2772;42.700;23.304;2024-01-15T10:40:14;94150.63;;;4.32;98.52
5500;BME280;2772;42.700;23.304;2024-01-15T10:42:40;94153.06;;;4.42;97.61
5500;BME280;2772;42.700;23.304;2024-01-15T10:45:08;94150.06;;;4.49;98.96
5500;BME280;2772;42.700;23.304;2024-01-15T10:47:35;94142.44;;;4.61;98.65
5500;BME280;2772;42.700;23.304;2024-01-15T10:50:02;94147.22;;;4.45;94.99
5500;BME280;2772;42.700;23.304;2024-01-15T10:52:33;94138.44;;;4.50;94.52
5500;BME280;2772;42.700;23.304;2024-01-15T10:55:00;94128.97;;;4.62;94.75
5500;BME280;2772;42.700;23.304;2024-01-15T10:57:36;94138.34;;;4.68;93.83
5500;BME280;2772;42.700;23.304;2024-01-15T11:00:07;94134.44;;;4.79;93.81
5500;BME280;2772;42.700;23.304;2024-01-15T11:02:45;94134.16;;;4.67;93.03
5500;BME280;2772;42.700;23.304;2024-01-15T11:05:21;94120.28;;;4.75;93.03
5500;BME280;2772;42.700;23.304;2024-01-15T11:08:04;94124.47;;;4.90;91.98
5500;BME280;2772;42.700;23.304;2024-01-15T11:10:38;94121.13;;;5.12;92.38
5500;BME280;2772;42.700;23.304;2024-01-15T11:13:21;94098.03;;;5.17;91.61
5500;BME280;2772;42.700;23.304;2024-01-15T11:15:55;94089.13;;;5.27;91.88
5500;BME280;2772;42.700;23.304;2024-01-15T11:18:22;94093.19;;;5.33;91.06
5500;BME280;2772;42.700;23.304;2024-01-15T11:23:54;94095.50;;;5.48;89.07
5500;BME280;2772;42.700;23.304;2024-01-15T11:26:34;94095.38;;;5.53;88.87
5500;BME280;2772;42.700;23.304;2024-01-15T11:29:04;94092.16;;;5.56;88.09
5500;BME280;2772;42.700;23.304;2024-01-15T11:31:57;94089.28;;;5.66;88.82
5500;BME280;2772;42.700;23.304;2024-01-15T11:34:49;94089.19;;;5.79;87.90
5500;BME280;2772;42.700;23.304;2024-01-15T11:37:16;94086.25;;;5.81;87.70
5500;BME280;2772;42.700;23.304;2024-01-15T11:39:43;94079.50;;;5.88;86.87
5500;BME280;2772;42.700;23.304;2024-01-15T11:42:11;94087.00;;;5.95;86.02
5500;BME280;2772;42.700;23.304;2024-01-15T11:44:39;94072.28;;;6.02;85.53
5500;BME280;2772;42.700;23.304;2024-01-15T11:47:07;94077.59;;;6.11;84.70
5500;BME280;2772;42.700;23.304;2024-01-15T11:49:59;94079.34;;;6.15;82.72
5500;BME280;2772;42.700;23.304;2024-01-15T11:52:32;94063.34;;;6.12;82.60
5500;BME280;2772;42.700;23.304;2024-01-15T11:55:11;94059.09;;;6.11;83.83
5500;BME280;2772;42.700;23.304;2024-01-15T11:57:44;94060.47;;;6.30;82.90
5500;BME280;2772;42.700;23.304;2024-01-15T12:00:14;94061.22;;;6.31;82.96
5500;BME280;2772;42.700;23.304;2024-01-15T12:02:41;94060.97;;;6.41;81.13
5500;BME280;2772;42.700;23.304;2024-01-15T12:05:09;94062.19;;;6.35;81.36
5500;BME280;2772;42.700;23.304;2024-01-15T12:07:38;94054.41;;;6.38;81.70
5500;BME280;2772;42.700;23.304;2024-01-15T12:10:08;94050.69;;;6.39;80.98
5500;BME280;2772;42.700;23.304;2024-01-15T12:12:57;94053.81;;;6.41;81.47
5500;BME280;2772;42.700;23.304;2024-01-15T12:15:26;94036.69;;;6.39;81.96
5500;BME280;2772;42.700;23.304;2024-01-15T12:17:54;94032.66;;;6.41;82.20
5500;BME280;2772;42.700;23.304;2024-01-15T12:20:23;94035.00;;;6.43;82.70
5500;BME280;2772;42.700;23.304;2024-01-15T12:22:50;94037.34;;;6.44;81.67
5500;BME280;2772;42.700;23.304;2024-01-15T12:25:17;94036.09;;;6.51;81.65
5500;BME280;2772;42.700;23.304;2024-01-15T12:27:44;94037.03;;;6.46;82.32
5500;BME280;2772;42.700;23.304;2024-01-15T12:30:11;94036.88;;;6.51;83.44
5500;BME280;2772;42.700;23.304;2024-01-15T12:32:40;94025.34;;;6.47;82.53
5500;BME280;2772;42.700;23.304;2024-01-15T12:35:07;94013.88;;;6.60;81.54
5500;BME280;2772;42.700;23.304;2024-01-15T12:37:35;94012.19;;;6.64;82.58
5500;BME280;2772;42.700;23.304;2024-01-15T12:40:02;94008.59;;;6.69;82.66
5500;BME280;2772;42.700;23.304;2024-01-15T12:42:30;94007.06;;;6.68;82.56
5500;BME280;2772;42.700;23.304;2024-01-15T12:44:56;94004.38;;;6.59;82.25
5500;BME280;2772;42.700;23.304;2024-01-15T12:47:23;94002.69;;;6.63;82.30
5500;BME280;2772;42.700;23.304;2024-01-15T12:49:52;94002.56;;;6.77;82.71
5500;BME280;2772;42.700;23.304;2024-01-15T12:52:20;94000.97;;;6.67;82.56
5500;BME280;2772;42.700;23.304;2024-01-15T12:54:47;94006.91;;;6.73;81.35
5500;BME280;2772;42.700;23.304;2024-01-15T12:57:14;93996.00;;;6.66;80.80
5500;BME280;2772;42.700;23.304;2024-01-15T12:59:41;93996.31;;;6.64;81.39
5500;BME280;2772;42.700;23.304;2024-01-15T13:02:08;93984.94;;;6.55;83.16
5500;BME280;2772;42.700;23.304;2024-01-15T13:04:34;93986.03;;;6.63;82.70
5500;BME280;2772;42.700;23.304;2024-01-15T13:07:03;93990.69;;;6.66;82.85
5500;BME280;2772;42.700;23.304;2024-01-15T13:09:29;93989.16;;;6.65;83.44
5500;BME280;2772;42.700;23.304;2024-01-15T13:11:57;93987.75;;;6.67;82.78
5500;BME280;2772;42.700;23.304;2024-01-15T13:14:24;93979.66;;;6.72;82.68
5500;BME280;2772;42.700;23.304;2024-01-15T13:16:51;93969.22;;;6.67;83.43